sensor_id;sensor_type;location;lat;lon;timestamp;P1;durP1;ratioP1;P2;durP2;ratioP2
65035;SDS011;51603;49.300;8.880;2023-12-20T00:00:53;17.50;;;15.20;;
65035;SDS011;51603;49.300;8.880;2023-12-20T00:03:19;17.43;;;14.67;;
65035;SDS011;51603;49.300;8.880;2023-12-20T00:05:45;17.00;;;13.80;;
65035;SDS011;51603;49.300;8.880;2023-12-20T00:08:10;16.50;;;13.63;;
65035;SDS011;51603;49.300;8.880;2023-12-20T00:10:36;18.57;;;14.87;;
65035;SDS011;51603;49.300;8.880;2023-12-20T00:13:02;17.13;;;14.53;;
65035;SDS011;51603;49.300;8.880;2023-12-20T00:15:27;17.23;;;14.67;;
65035;SDS011;51603;49.300;8.880;2023-12-20T00:17:53;15.03;;;13.50;;
65035;SDS011;51603;49.300;8.880;2023-12-20T00:20:18;16.10;;;14.17;;
65035;SDS011;51603;49.300;8.880;2023-12-20T00:22:44;22.00;;;14.80;;
65035;SDS011;51603;49.300;8.880;2023-12-20T00:25:10;15.63;;;13.83;;
65035;SDS011;51603;49.300;8.880;2023-12-20T00:27:35;15.30;;;13.70;;
65035;SDS011;51603;49.300;8.880;2023-12-20T00:30:01;14.83;;;13.33;;
65035;SDS011;51603;49.300;8.880;2023-12-20T00:32:26;19.40;;;16.03;;
65035;SDS011;51603;49.300;8.880;2023-12-20T00:34:52;18.30;;;16.23;;
65035;SDS011;51603;49.300;8.880;2023-12-20T00:37:17;17.67;;;14.93;;
65035;SDS011;51603;49.300;8.880;2023-12-20T00:39:43;20.27;;;15.63;;
65035;SDS011;51603;49.300;8.880;2023-12-20T00:42:08;17.07;;;14.40;;
65035;SDS011;51603;49.300;8.880;2023-12-20T00:44:34;20.57;;;14.80;;
65035;SDS011;51603;49.300;8.880;2023-12-20T00:46:59;15.60;;;13.90;;
65035;SDS011;51603;49.300;8.880;2023-12-20T00:49:26;17.17;;;14.23;;
65035;SDS011;51603;49.300;8.880;2023-12-20T00:51:51;17.13;;;14.40;;
65035;SDS011;51603;49.300;8.880;2023-12-20T00:54:17;17.27;;;14.00;;
65035;SDS011;51603;49.300;8.880;2023-12-20T00:56:43;17.60;;;13.40;;
65035;SDS011;51603;49.300;8.880;2023-12-20T00:59:09;15.80;;;13.23;;
65035;SDS011;51603;49.300;8.880;2023-12-20T01:01:34;17.60;;;13.53;;
65035;SDS011;51603;49.300;8.880;2023-12-20T01:04:00;18.43;;;13.60;;
65035;SDS011;51603;49.300;8.880;2023-12-20T01:06:25;17.37;;;13.50;;
65035;SDS011;51603;49.300;8.880;2023-12-20T01:08:51;18.50;;;13.87;;
65035;SDS011;51603;49.300;8.880;2023-12-20T01:11:16;18.10;;;15.37;;
65035;SDS011;51603;49.300;8.880;2023-12-20T01:13:42;14.97;;;12.70;;
65035;SDS011;51603;49.300;8.880;2023-12-20T01:16:10;16.50;;;12.73;;
65035;SDS011;51603;49.300;8.880;2023-12-20T01:18:36;13.40;;;11.63;;
65035;SDS011;51603;49.300;8.880;2023-12-20T01:21:04;14.60;;;11.87;;
65035;SDS011;51603;49.300;8.880;2023-12-20T01:23:30;17.20;;;13.33;;
65035;SDS011;51603;49.300;8.880;2023-12-20T01:25:57;16.20;;;12.37;;
65035;SDS011;51603;49.300;8.880;2023-12-20T01:28:26;16.00;;;13.63;;
65035;SDS011;51603;49.300;8.880;2023-12-20T01:30:52;17.67;;;12.40;;
65035;SDS011;51603;49.300;8.880;2023-12-20T01:33:17;15.83;;;13.60;;
65035;SDS011;51603;49.300;8.880;2023-12-20T01:35:43;14.33;;;12.83;;
65035;SDS011;51603;49.300;8.880;2023-12-20T01:38:08;15.30;;;12.40;;
65035;SDS011;51603;49.300;8.880;2023-12-20T01:40:34;14.37;;;12.87;;
65035;SDS011;51603;49.300;8.880;2023-12-20T01:43:07;13.43;;;12.00;;
65035;SDS011;51603;49.300;8.880;2023-12-20T01:45:33;14.60;;;11.40;;
65035;SDS011;51603;49.300;8.880;2023-12-20T01:47:59;13.30;;;11.67;;
65035;SDS011;51603;49.300;8.880;2023-12-20T01:50:27;13.40;;;10.60;;
65035;SDS011;51603;49.300;8.880;2023-12-20T01:52:53;11.83;;;10.60;;
65035;SDS011;51603;49.300;8.880;2023-12-20T01:55:22;14.10;;;12.63;;
65035;SDS011;51603;49.300;8.880;2023-12-20T01:57:49;11.67;;;9.80;;
65035;SDS011;51603;49.300;8.880;2023-12-20T02:00:15;10.30;;;9.20;;
65035;SDS011;51603;49.300;8.880;2023-12-20T02:02:41;10.30;;;9.20;;
65035;SDS011;51603;49.300;8.880;2023-12-20T02:05:08;9.20;;;8.30;;
65035;SDS011;51603;49.300;8.880;2023-12-20T02:07:34;11.43;;;10.33;;
65035;SDS011;51603;49.300;8.880;2023-12-20T02:10:03;9.30;;;8.40;;
65035;SDS011;51603;49.300;8.880;2023-12-20T02:12:29;10.90;;;9.80;;
65035;SDS011;51603;49.300;8.880;2023-12-20T02:14:55;9.87;;;8.97;;
65035;SDS011;51603;49.300;8.880;2023-12-20T02:17:21;11.90;;;9.20;;
65035;SDS011;51603;49.300;8.880;2023-12-20T02:19:48;10.13;;;8.40;;
65035;SDS011;51603;49.300;8.880;2023-12-20T02:22:14;10.40;;;9.30;;
65035;SDS011;51603;49.300;8.880;2023-12-20T02:24:39;10.03;;;9.03;;
65035;SDS011;51603;49.300;8.880;2023-12-20T02:27:05;10.40;;;8.87;;
65035;SDS011;51603;49.300;8.880;2023-12-20T02:29:32;10.00;;;8.47;;
65035;SDS011;51603;49.300;8.880;2023-12-20T02:32:01;9.90;;;7.13;;
65035;SDS011;51603;49.300;8.880;2023-12-20T02:34:27;9.33;;;8.10;;
65035;SDS011;51603;49.300;8.880;2023-12-20T02:36:53;9.57;;;8.40;;
65035;SDS011;51603;49.300;8.880;2023-12-20T02:39:19;8.80;;;7.90;;
65035;SDS011;51603;49.300;8.880;2023-12-20T02:41:46;9.37;;;8.47;;
65035;SDS011;51603;49.300;8.880;2023-12-20T02:44:12;9.37;;;8.33;;
65035;SDS011;51603;49.300;8.880;2023-12-20T02:46:37;8.40;;;7.60;;
65035;SDS011;51603;49.300;8.880;2023-12-20T02:49:03;8.30;;;7.50;;
65035;SDS011;51603;49.300;8.880;2023-12-20T02:51:28;7.87;;;7.07;;
65035;SDS011;51603;49.300;8.880;2023-12-20T02:53:54;9.50;;;8.20;;
65035;SDS011;51603;49.300;8.880;2023-12-20T02:56:19;8.23;;;7.53;;
65035;SDS011;51603;49.300;8.880;2023-12-20T02:58:45;8.37;;;7.50;;
65035;SDS011;51603;49.300;8.880;2023-12-20T03:01:10;8.70;;;7.80;;
65035;SDS011;51603;49.300;8.880;2023-12-20T03:03:36;9.27;;;8.07;;
65035;SDS011;51603;49.300;8.880;2023-12-20T03:06:01;7.67;;;6.87;;
65035;SDS011;51603;49.300;8.880;2023-12-20T03:08:27;9.33;;;8.40;;
65035;SDS011;51603;49.300;8.880;2023-12-20T03:10:53;8.63;;;7.83;;
65035;SDS011;51603;49.300;8.880;2023-12-20T03:13:18;9.20;;;7.43;;
65035;SDS011;51603;49.300;8.880;2023-12-20T03:15:44;10.70;;;9.60;;
65035;SDS011;51603;49.300;8.880;2023-12-20T03:18:12;8.83;;;7.93;;
65035;SDS011;51603;49.300;8.880;2023-12-20T03:20:38;9.20;;;7.73;;
65035;SDS011;51603;49.300;8.880;2023-12-20T03:23:06;9.00;;;8.00;;
65035;SDS011;51603;49.300;8.880;2023-12-20T03:25:31;8.77;;;7.63;;
65035;SDS011;51603;49.300;8.880;2023-12-20T03:27:57;10.30;;;8.27;;
65035;SDS011;51603;49.300;8.880;2023-12-20T03:30:22;7.73;;;6.93;;
65035;SDS011;51603;49.300;8.880;2023-12-20T03:32:48;7.50;;;6.70;;
65035;SDS011;51603;49.300;8.880;2023-12-20T03:35:13;8.30;;;7.13;;
65035;SDS011;51603;49.300;8.880;2023-12-20T03:37:39;7.30;;;6.60;;
65035;SDS011;51603;49.300;8.880;2023-12-20T03:40:04;9.27;;;7.10;;
65035;SDS011;51603;49.300;8.880;2023-12-20T03:42:30;8.00;;;7.20;;
65035;SDS011;51603;49.300;8.880;2023-12-20T03:44:56;8.23;;;7.30;;
65035;SDS011;51603;49.300;8.880;2023-12-20T03:47:21;6.63;;;6.03;;
65035;SDS011;51603;49.300;8.880;2023-12-20T03:49:47;6.90;;;6.20;;
65035;SDS011;51603;49.300;8.880;2023-12-20T03:52:12;9.03;;;7.50;;
65035;SDS011;51603;49.300;8.880;2023-12-20T03:54:38;8.67;;;7.07;;
65035;SDS011;51603;49.300;8.880;2023-12-20T03:57:04;7.67;;;6.87;;
65035;SDS011;51603;49.300;8.880;2023-12-20T03:59:29;8.63;;;7.30;;
65035;SDS011;51603;49.300;8.880;2023-12-20T04:01:59;8.33;;;6.87;;
65035;SDS011;51603;49.300;8.880;2023-12-20T04:04:24;6.30;;;5.70;;
65035;SDS011;51603;49.300;8.880;2023-12-20T04:06:50;8.33;;;7.17;;
65035;SDS011;51603;49.300;8.880;2023-12-20T04:09:16;7.17;;;6.40;;
65035;SDS011;51603;49.300;8.880;2023-12-20T04:11:41;8.33;;;7.43;;
65035;SDS011;51603;49.300;8.880;2023-12-20T04:14:07;8.00;;;6.60;;
65035;SDS011;51603;49.300;8.880;2023-12-20T04:16:32;6.73;;;6.10;;
65035;SDS011;51603;49.300;8.880;2023-12-20T04:18:58;8.17;;;7.37;;
65035;SDS011;51603;49.300;8.880;2023-12-20T04:21:23;10.23;;;9.10;;
65035;SDS011;51603;49.300;8.880;2023-12-20T04:23:49;10.27;;;9.27;;
65035;SDS011;51603;49.300;8.880;2023-12-20T04:26:15;9.33;;;6.70;;
65035;SDS011;51603;49.300;8.880;2023-12-20T04:28:40;11.00;;;9.20;;
65035;SDS011;51603;49.300;8.880;2023-12-20T04:31:06;8.20;;;6.20;;
65035;SDS011;51603;49.300;8.880;2023-12-20T04:33:31;8.53;;;7.67;;
65035;SDS011;51603;49.300;8.880;2023-12-20T04:35:57;8.70;;;7.40;;
65035;SDS011;51603;49.300;8.880;2023-12-20T04:38:23;8.10;;;7.30;;
65035;SDS011;51603;49.300;8.880;2023-12-20T04:40:48;5.93;;;5.43;;
65035;SDS011;51603;49.300;8.880;2023-12-20T04:43:14;9.37;;;8.57;;
65035;SDS011;51603;49.300;8.880;2023-12-20T04:45:39;7.40;;;6.60;;
65035;SDS011;51603;49.300;8.880;2023-12-20T04:48:05;6.60;;;6.00;;
65035;SDS011;51603;49.300;8.880;2023-12-20T04:50:31;7.30;;;6.60;;
65035;SDS011;51603;49.300;8.880;2023-12-20T04:52:58;7.83;;;7.13;;
65035;SDS011;51603;49.300;8.880;2023-12-20T04:55:23;7.83;;;6.60;;
65035;SDS011;51603;49.300;8.880;2023-12-20T04:57:49;7.07;;;6.47;;
65035;SDS011;51603;49.300;8.880;2023-12-20T05:00:14;8.03;;;7.00;;
65035;SDS011;51603;49.300;8.880;2023-12-20T05:02:40;8.03;;;7.33;;
65035;SDS011;51603;49.300;8.880;2023-12-20T05:05:06;8.03;;;7.23;;
65035;SDS011;51603;49.300;8.880;2023-12-20T05:07:32;7.10;;;6.40;;
65035;SDS011;51603;49.300;8.880;2023-12-20T05:09:58;6.93;;;6.33;;
65035;SDS011;51603;49.300;8.880;2023-12-20T05:12:24;6.67;;;6.03;;
65035;SDS011;51603;49.300;8.880;2023-12-20T05:14:51;7.20;;;6.60;;
65035;SDS011;51603;49.300;8.880;2023-12-20T05:17:17;6.80;;;6.10;;
65035;SDS011;51603;49.300;8.880;2023-12-20T05:19:43;6.73;;;6.13;;
65035;SDS011;51603;49.300;8.880;2023-12-20T05:22:08;7.17;;;6.57;;
65035;SDS011;51603;49.300;8.880;2023-12-20T05:24:34;6.17;;;5.60;;
65035;SDS011;51603;49.300;8.880;2023-12-20T05:27:00;7.20;;;6.50;;
65035;SDS011;51603;49.300;8.880;2023-12-20T05:29:25;8.10;;;7.30;;
65035;SDS011;51603;49.300;8.880;2023-12-20T05:31:51;8.63;;;7.83;;
65035;SDS011;51603;49.300;8.880;2023-12-20T05:34:17;7.73;;;6.97;;
65035;SDS011;51603;49.300;8.880;2023-12-20T05:36:42;9.37;;;8.57;;
65035;SDS011;51603;49.300;8.880;2023-12-20T05:39:08;8.07;;;7.33;;
65035;SDS011;51603;49.300;8.880;2023-12-20T05:41:33;9.97;;;8.97;;
65035;SDS011;51603;49.300;8.880;2023-12-20T05:43:59;10.70;;;9.60;;
65035;SDS011;51603;49.300;8.880;2023-12-20T05:46:25;9.97;;;9.00;;
65035;SDS011;51603;49.300;8.880;2023-12-20T05:48:51;10.10;;;9.20;;
65035;SDS011;51603;49.300;8.880;2023-12-20T05:51:17;11.23;;;10.17;;
65035;SDS011;51603;49.300;8.880;2023-12-20T05:53:43;10.23;;;9.33;;
65035;SDS011;51603;49.300;8.880;2023-12-20T05:56:09;10.90;;;9.80;;
65035;SDS011;51603;49.300;8.880;2023-12-20T05:58:35;9.77;;;8.73;;
65035;SDS011;51603;49.300;8.880;2023-12-20T06:01:03;10.83;;;9.83;;
65035;SDS011;51603;49.300;8.880;2023-12-20T06:03:29;10.10;;;9.10;;
65035;SDS011;51603;49.300;8.880;2023-12-20T06:05:55;11.80;;;10.70;;
65035;SDS011;51603;49.300;8.880;2023-12-20T06:08:21;10.37;;;9.30;;
65035;SDS011;51603;49.300;8.880;2023-12-20T06:10:46;11.67;;;10.50;;
65035;SDS011;51603;49.300;8.880;2023-12-20T06:13:12;12.00;;;10.83;;
65035;SDS011;51603;49.300;8.880;2023-12-20T06:15:38;11.90;;;10.70;;
65035;SDS011;51603;49.300;8.880;2023-12-20T06:18:05;14.90;;;10.70;;
65035;SDS011;51603;49.300;8.880;2023-12-20T06:20:32;11.73;;;10.40;;
65035;SDS011;51603;49.300;8.880;2023-12-20T06:22:58;10.57;;;9.63;;
65035;SDS011;51603;49.300;8.880;2023-12-20T06:25:23;11.73;;;10.50;;
65035;SDS011;51603;49.300;8.880;2023-12-20T06:27:50;11.73;;;10.30;;
65035;SDS011;51603;49.300;8.880;2023-12-20T06:30:15;8.13;;;7.40;;
65035;SDS011;51603;49.300;8.880;2023-12-20T06:32:41;9.30;;;8.40;;
65035;SDS011;51603;49.300;8.880;2023-12-20T06:35:08;9.70;;;8.70;;
65035;SDS011;51603;49.300;8.880;2023-12-20T06:37:33;9.07;;;8.20;;
65035;SDS011;51603;49.300;8.880;2023-12-20T06:39:59;8.87;;;7.97;;
65035;SDS011;51603;49.300;8.880;2023-12-20T06:42:24;9.13;;;8.33;;
65035;SDS011;51603;49.300;8.880;2023-12-20T06:44:50;8.83;;;7.97;;
65035;SDS011;51603;49.300;8.880;2023-12-20T06:47:15;11.90;;;10.70;;
65035;SDS011;51603;49.300;8.880;2023-12-20T06:49:41;12.13;;;9.90;;
65035;SDS011;51603;49.300;8.880;2023-12-20T06:52:07;9.17;;;8.30;;
65035;SDS011;51603;49.300;8.880;2023-12-20T06:54:32;8.20;;;7.50;;
65035;SDS011;51603;49.300;8.880;2023-12-20T06:56:59;8.50;;;7.77;;
65035;SDS011;51603;49.300;8.880;2023-12-20T06:59:25;9.40;;;7.40;;
65035;SDS011;51603;49.300;8.880;2023-12-20T07:01:51;7.10;;;6.50;;
65035;SDS011;51603;49.300;8.880;2023-12-20T07:04:16;7.87;;;7.17;;
65035;SDS011;51603;49.300;8.880;2023-12-20T07:06:45;6.90;;;6.30;;
65035;SDS011;51603;49.300;8.880;2023-12-20T07:09:11;6.87;;;6.17;;
65035;SDS011;51603;49.300;8.880;2023-12-20T07:11:38;8.43;;;7.60;;
65035;SDS011;51603;49.300;8.880;2023-12-20T07:14:04;10.57;;;9.40;;
65035;SDS011;51603;49.300;8.880;2023-12-20T07:16:29;13.83;;;10.00;;
65035;SDS011;51603;49.300;8.880;2023-12-20T07:18:55;11.57;;;10.47;;
65035;SDS011;51603;49.300;8.880;2023-12-20T07:21:22;10.73;;;9.73;;
65035;SDS011;51603;49.300;8.880;2023-12-20T07:23:47;10.90;;;9.80;;
65035;SDS011;51603;49.300;8.880;2023-12-20T07:26:13;11.70;;;10.60;;
65035;SDS011;51603;49.300;8.880;2023-12-20T07:28:38;13.00;;;11.77;;
65035;SDS011;51603;49.300;8.880;2023-12-20T07:31:05;12.50;;;11.17;;
65035;SDS011;51603;49.300;8.880;2023-12-20T07:33:31;11.23;;;10.10;;
65035;SDS011;51603;49.300;8.880;2023-12-20T07:35:56;13.07;;;11.80;;
65035;SDS011;51603;49.300;8.880;2023-12-20T07:38:22;11.90;;;10.80;;
65035;SDS011;51603;49.300;8.880;2023-12-20T07:40:47;11.60;;;10.40;;
65035;SDS011;51603;49.300;8.880;2023-12-20T07:43:13;16.10;;;13.70;;
65035;SDS011;51603;49.300;8.880;2023-12-20T07:45:38;12.77;;;11.40;;
65035;SDS011;51603;49.300;8.880;2023-12-20T07:48:04;12.13;;;10.33;;
65035;SDS011;51603;49.300;8.880;2023-12-20T07:50:31;12.73;;;10.83;;
65035;SDS011;51603;49.300;8.880;2023-12-20T07:52:57;15.37;;;11.53;;
65035;SDS011;51603;49.300;8.880;2023-12-20T07:55:24;12.47;;;11.27;;
65035;SDS011;51603;49.300;8.880;2023-12-20T07:57:50;12.93;;;11.30;;
65035;SDS011;51603;49.300;8.880;2023-12-20T08:00:15;18.33;;;12.87;;
65035;SDS011;51603;49.300;8.880;2023-12-20T08:02:41;11.37;;;10.27;;
65035;SDS011;51603;49.300;8.880;2023-12-20T08:05:07;10.53;;;9.53;;
65035;SDS011;51603;49.300;8.880;2023-12-20T08:07:32;12.70;;;11.37;;
65035;SDS011;51603;49.300;8.880;2023-12-20T08:09:58;11.63;;;10.47;;
65035;SDS011;51603;49.300;8.880;2023-12-20T08:12:24;9.53;;;8.60;;
65035;SDS011;51603;49.300;8.880;2023-12-20T08:14:52;10.20;;;9.13;;
65035;SDS011;51603;49.300;8.880;2023-12-20T08:17:18;10.67;;;9.57;;
65035;SDS011;51603;49.300;8.880;2023-12-20T08:19:44;9.13;;;8.20;;
65035;SDS011;51603;49.300;8.880;2023-12-20T08:22:09;9.70;;;8.70;;
65035;SDS011;51603;49.300;8.880;2023-12-20T08:24:36;9.60;;;8.03;;
65035;SDS011;51603;49.300;8.880;2023-12-20T08:27:02;8.63;;;7.83;;
65035;SDS011;51603;49.300;8.880;2023-12-20T08:29:27;8.70;;;7.77;;
65035;SDS011;51603;49.300;8.880;2023-12-20T08:31:53;8.77;;;7.87;;
65035;SDS011;51603;49.300;8.880;2023-12-20T08:34:20;6.40;;;5.70;;
65035;SDS011;51603;49.300;8.880;2023-12-20T08:36:45;5.40;;;4.87;;
65035;SDS011;51603;49.300;8.880;2023-12-20T08:39:11;6.10;;;5.60;;
65035;SDS011;51603;49.300;8.880;2023-12-20T08:41:36;5.43;;;4.93;;
65035;SDS011;51603;49.300;8.880;2023-12-20T08:44:02;6.73;;;5.40;;
65035;SDS011;51603;49.300;8.880;2023-12-20T08:46:28;7.93;;;4.60;;
65035;SDS011;51603;49.300;8.880;2023-12-20T08:48:54;4.97;;;4.57;;
65035;SDS011;51603;49.300;8.880;2023-12-20T08:51:20;5.97;;;4.30;;
65035;SDS011;51603;49.300;8.880;2023-12-20T08:53:47;8.43;;;5.83;;
65035;SDS011;51603;49.300;8.880;2023-12-20T08:56:14;5.87;;;5.17;;
65035;SDS011;51603;49.300;8.880;2023-12-20T08:58:39;6.57;;;5.20;;
65035;SDS011;51603;49.300;8.880;2023-12-20T09:01:05;10.00;;;4.70;;
65035;SDS011;51603;49.300;8.880;2023-12-20T09:03:32;4.67;;;4.27;;
65035;SDS011;51603;49.300;8.880;2023-12-20T09:05:58;7.60;;;6.23;;
65035;SDS011;51603;49.300;8.880;2023-12-20T09:08:23;7.20;;;5.43;;
65035;SDS011;51603;49.300;8.880;2023-12-20T09:10:49;5.67;;;5.13;;
65035;SDS011;51603;49.300;8.880;2023-12-20T09:13:14;8.40;;;4.90;;
65035;SDS011;51603;49.300;8.880;2023-12-20T09:15:40;6.90;;;4.47;;
65035;SDS011;51603;49.300;8.880;2023-12-20T09:18:05;12.43;;;4.73;;
65035;SDS011;51603;49.300;8.880;2023-12-20T09:20:31;7.90;;;3.87;;
65035;SDS011;51603;49.300;8.880;2023-12-20T09:22:57;5.70;;;3.73;;
65035;SDS011;51603;49.300;8.880;2023-12-20T09:25:23;6.00;;;3.67;;
65035;SDS011;51603;49.300;8.880;2023-12-20T09:27:50;4.50;;;3.40;;
65035;SDS011;51603;49.300;8.880;2023-12-20T09:30:17;4.10;;;3.70;;
65035;SDS011;51603;49.300;8.880;2023-12-20T09:32:43;7.30;;;4.10;;
65035;SDS011;51603;49.300;8.880;2023-12-20T09:35:09;6.73;;;4.33;;
65035;SDS011;51603;49.300;8.880;2023-12-20T09:37:34;4.40;;;3.63;;
65035;SDS011;51603;49.300;8.880;2023-12-20T09:40:00;4.90;;;3.80;;
65035;SDS011;51603;49.300;8.880;2023-12-20T09:45:14;4.80;;;3.13;;
65035;SDS011;51603;49.300;8.880;2023-12-20T09:47:43;7.07;;;3.40;;
65035;SDS011;51603;49.300;8.880;2023-12-20T09:50:09;6.53;;;4.63;;
65035;SDS011;51603;49.300;8.880;2023-12-20T09:52:36;11.37;;;4.63;;
65035;SDS011;51603;49.300;8.880;2023-12-20T09:55:04;5.00;;;2.30;;
65035;SDS011;51603;49.300;8.880;2023-12-20T09:57:33;5.40;;;2.93;;
65035;SDS011;51603;49.300;8.880;2023-12-20T09:59:59;6.57;;;4.77;;
65035;SDS011;51603;49.300;8.880;2023-12-20T10:02:25;11.20;;;4.10;;
65035;SDS011;51603;49.300;8.880;2023-12-20T10:04:54;6.53;;;2.87;;
65035;SDS011;51603;49.300;8.880;2023-12-20T10:07:20;6.03;;;3.53;;
65035;SDS011;51603;49.300;8.880;2023-12-20T10:09:47;5.83;;;3.20;;
65035;SDS011;51603;49.300;8.880;2023-12-20T10:12:13;4.47;;;2.50;;
65035;SDS011;51603;49.300;8.880;2023-12-20T10:14:38;5.37;;;2.00;;
65035;SDS011;51603;49.300;8.880;2023-12-20T10:17:04;3.50;;;2.17;;
65035;SDS011;51603;49.300;8.880;2023-12-20T10:19:31;7.47;;;2.30;;
65035;SDS011;51603;49.300;8.880;2023-12-20T10:21:59;8.90;;;3.27;;
65035;SDS011;51603;49.300;8.880;2023-12-20T10:24:25;5.97;;;2.63;;
65035;SDS011;51603;49.300;8.880;2023-12-20T10:27:03;5.03;;;2.53;;
65035;SDS011;51603;49.300;8.880;2023-12-20T10:29:33;5.13;;;2.17;;
65035;SDS011;51603;49.300;8.880;2023-12-20T10:31:59;5.63;;;2.57;;
65035;SDS011;51603;49.300;8.880;2023-12-20T10:34:25;4.97;;;2.00;;
65035;SDS011;51603;49.300;8.880;2023-12-20T10:36:51;8.63;;;2.27;;
65035;SDS011;51603;49.300;8.880;2023-12-20T10:39:16;5.40;;;2.00;;
65035;SDS011;51603;49.300;8.880;2023-12-20T10:41:45;6.83;;;2.83;;
65035;SDS011;51603;49.300;8.880;2023-12-20T10:44:11;4.77;;;2.57;;
65035;SDS011;51603;49.300;8.880;2023-12-20T10:46:38;4.23;;;1.60;;
65035;SDS011;51603;49.300;8.880;2023-12-20T10:49:05;5.00;;;2.23;;
65035;SDS011;51603;49.300;8.880;2023-12-20T10:51:33;11.00;;;2.93;;
65035;SDS011;51603;49.300;8.880;2023-12-20T10:53:59;12.90;;;5.03;;
65035;SDS011;51603;49.300;8.880;2023-12-20T10:56:25;9.83;;;7.40;;
65035;SDS011;51603;49.300;8.880;2023-12-20T10:58:57;6.17;;;2.37;;
65035;SDS011;51603;49.300;8.880;2023-12-20T11:01:27;3.97;;;2.27;;
65035;SDS011;51603;49.300;8.880;2023-12-20T11:03:55;6.13;;;3.10;;
65035;SDS011;51603;49.300;8.880;2023-12-20T11:11:39;9.40;;;2.60;;
65035;SDS011;51603;49.300;8.880;2023-12-20T11:14:22;3.60;;;1.93;;
65035;SDS011;51603;49.300;8.880;2023-12-20T11:17:15;6.73;;;2.17;;
65035;SDS011;51603;49.300;8.880;2023-12-20T11:22:26;4.40;;;2.43;;
65035;SDS011;51603;49.300;8.880;2023-12-20T11:24:53;9.80;;;2.30;;
65035;SDS011;51603;49.300;8.880;2023-12-20T11:27:20;6.60;;;2.67;;
65035;SDS011;51603;49.300;8.880;2023-12-20T11:29:52;5.33;;;2.50;;
65035;SDS011;51603;49.300;8.880;2023-12-20T11:34:58;9.40;;;2.17;;
65035;SDS011;51603;49.300;8.880;2023-12-20T11:37:31;4.13;;;2.27;;
65035;SDS011;51603;49.300;8.880;2023-12-20T11:40:00;4.70;;;2.43;;
65035;SDS011;51603;49.300;8.880;2023-12-20T11:42:50;4.53;;;2.60;;
65035;SDS011;51603;49.300;8.880;2023-12-20T11:45:17;4.90;;;2.00;;
65035;SDS011;51603;49.300;8.880;2023-12-20T11:47:48;3.47;;;2.30;;
65035;SDS011;51603;49.300;8.880;2023-12-20T11:50:21;7.13;;;3.73;;
65035;SDS011;51603;49.300;8.880;2023-12-20T11:52:48;9.27;;;6.80;;
65035;SDS011;51603;49.300;8.880;2023-12-20T11:55:14;6.57;;;2.90;;
65035;SDS011;51603;49.300;8.880;2023-12-20T11:57:39;6.33;;;3.17;;
65035;SDS011;51603;49.300;8.880;2023-12-20T12:00:05;6.00;;;2.90;;
65035;SDS011;51603;49.300;8.880;2023-12-20T12:02:32;4.20;;;2.93;;
65035;SDS011;51603;49.300;8.880;2023-12-20T12:04:57;9.07;;;2.90;;
65035;SDS011;51603;49.300;8.880;2023-12-20T12:07:25;10.20;;;3.07;;
65035;SDS011;51603;49.300;8.880;2023-12-20T12:09:50;7.00;;;3.50;;
65035;SDS011;51603;49.300;8.880;2023-12-20T12:12:16;6.07;;;3.00;;
65035;SDS011;51603;49.300;8.880;2023-12-20T12:14:44;6.27;;;3.07;;
65035;SDS011;51603;49.300;8.880;2023-12-20T12:17:13;5.00;;;2.83;;
65035;SDS011;51603;49.300;8.880;2023-12-20T12:19:39;15.70;;;3.30;;
65035;SDS011;51603;49.300;8.880;2023-12-20T12:24:38;9.20;;;3.93;;
65035;SDS011;51603;49.300;8.880;2023-12-20T12:27:11;9.43;;;3.27;;
65035;SDS011;51603;49.300;8.880;2023-12-20T12:29:38;5.80;;;4.40;;
65035;SDS011;51603;49.300;8.880;2023-12-20T12:32:04;4.07;;;3.60;;
65035;SDS011;51603;49.300;8.880;2023-12-20T12:34:34;7.17;;;3.10;;
65035;SDS011;51603;49.300;8.880;2023-12-20T12:37:00;7.70;;;4.40;;
65035;SDS011;51603;49.300;8.880;2023-12-20T12:39:26;7.63;;;4.10;;
65035;SDS011;51603;49.300;8.880;2023-12-20T12:41:52;11.70;;;3.87;;
65035;SDS011;51603;49.300;8.880;2023-12-20T12:44:18;10.40;;;3.83;;
65035;SDS011;51603;49.300;8.880;2023-12-20T12:46:45;6.47;;;3.60;;
65035;SDS011;51603;49.300;8.880;2023-12-20T12:49:11;10.60;;;4.03;;
65035;SDS011;51603;49.300;8.880;2023-12-20T12:51:37;13.80;;;8.63;;
65035;SDS011;51603;49.300;8.880;2023-12-20T12:54:03;6.43;;;4.20;;
65035;SDS011;51603;49.300;8.880;2023-12-20T12:56:29;4.10;;;3.17;;
65035;SDS011;51603;49.300;8.880;2023-12-20T12:58:54;6.90;;;3.77;;
65035;SDS011;51603;49.300;8.880;2023-12-20T13:01:20;8.17;;;4.87;;
65035;SDS011;51603;49.300;8.880;2023-12-20T13:03:46;6.57;;;3.40;;
65035;SDS011;51603;49.300;8.880;2023-12-20T13:06:14;6.30;;;3.47;;
65035;SDS011;51603;49.300;8.880;2023-12-20T13:08:41;4.43;;;3.23;;
65035;SDS011;51603;49.300;8.880;2023-12-20T13:11:10;7.77;;;3.40;;
65035;SDS011;51603;49.300;8.880;2023-12-20T13:13:41;9.17;;;3.70;;
65035;SDS011;51603;49.300;8.880;2023-12-20T13:16:11;7.27;;;3.70;;
65035;SDS011;51603;49.300;8.880;2023-12-20T13:18:37;7.10;;;4.13;;
65035;SDS011;51603;49.300;8.880;2023-12-20T13:21:10;8.57;;;3.67;;
65035;SDS011;51603;49.300;8.880;2023-12-20T13:23:35;5.23;;;3.53;;
65035;SDS011;51603;49.300;8.880;2023-12-20T13:26:01;3.97;;;3.07;;
65035;SDS011;51603;49.300;8.880;2023-12-20T13:28:28;9.73;;;3.70;;
65035;SDS011;51603;49.300;8.880;2023-12-20T13:30:53;6.37;;;3.67;;
65035;SDS011;51603;49.300;8.880;2023-12-20T13:33:19;7.13;;;3.27;;
65035;SDS011;51603;49.300;8.880;2023-12-20T13:35:44;12.40;;;3.67;;
65035;SDS011;51603;49.300;8.880;2023-12-20T13:38:12;11.70;;;6.13;;
65035;SDS011;51603;49.300;8.880;2023-12-20T13:40:38;10.17;;;4.43;;
65035;SDS011;51603;49.300;8.880;2023-12-20T13:43:03;9.30;;;4.30;;
65035;SDS011;51603;49.300;8.880;2023-12-20T13:45:29;17.13;;;7.63;;
65035;SDS011;51603;49.300;8.880;2023-12-20T13:47:55;7.00;;;3.60;;
65035;SDS011;51603;49.300;8.880;2023-12-20T13:50:20;9.53;;;4.30;;
65035;SDS011;51603;49.300;8.880;2023-12-20T13:52:46;6.77;;;3.50;;
65035;SDS011;51603;49.300;8.880;2023-12-20T13:55:12;6.33;;;3.00;;
65035;SDS011;51603;49.300;8.880;2023-12-20T13:57:38;6.83;;;3.70;;
65035;SDS011;51603;49.300;8.880;2023-12-20T14:00:05;9.53;;;4.20;;
65035;SDS011;51603;49.300;8.880;2023-12-20T14:02:31;7.20;;;3.70;;
65035;SDS011;51603;49.300;8.880;2023-12-20T14:04:56;8.30;;;3.50;;
65035;SDS011;51603;49.300;8.880;2023-12-20T14:07:22;9.43;;;4.00;;
65035;SDS011;51603;49.300;8.880;2023-12-20T14:09:47;11.70;;;4.27;;
65035;SDS011;51603;49.300;8.880;2023-12-20T14:12:13;9.60;;;4.20;;
65035;SDS011;51603;49.300;8.880;2023-12-20T14:14:39;10.43;;;3.53;;
65035;SDS011;51603;49.300;8.880;2023-12-20T14:17:05;8.00;;;3.20;;
65035;SDS011;51603;49.300;8.880;2023-12-20T14:19:34;12.60;;;4.20;;
65035;SDS011;51603;49.300;8.880;2023-12-20T14:22:00;6.90;;;4.27;;
65035;SDS011;51603;49.300;8.880;2023-12-20T14:24:27;11.37;;;5.57;;
65035;SDS011;51603;49.300;8.880;2023-12-20T14:26:57;10.97;;;4.70;;
65035;SDS011;51603;49.300;8.880;2023-12-20T14:29:23;15.27;;;8.87;;
65035;SDS011;51603;49.300;8.880;2023-12-20T14:31:49;13.10;;;5.07;;
65035;SDS011;51603;49.300;8.880;2023-12-20T14:34:14;15.97;;;8.40;;
65035;SDS011;51603;49.300;8.880;2023-12-20T14:36:40;15.00;;;10.33;;
65035;SDS011;51603;49.300;8.880;2023-12-20T14:39:07;9.43;;;4.80;;
65035;SDS011;51603;49.300;8.880;2023-12-20T14:41:33;15.47;;;8.23;;
65035;SDS011;51603;49.300;8.880;2023-12-20T14:43:59;15.50;;;5.80;;
65035;SDS011;51603;49.300;8.880;2023-12-20T14:46:25;10.67;;;5.07;;
65035;SDS011;51603;49.300;8.880;2023-12-20T14:48:50;9.03;;;3.20;;
65035;SDS011;51603;49.300;8.880;2023-12-20T14:51:16;11.47;;;4.10;;